Tiempo atmosférico en la estación meteorológica de Hermigua, Santa Cruz de Tenerife (252 m.)



Fecha
DESCASC
Temp. máxima en grados centígrados (hora)
DESCASC
Temp. mínima en grados centígrados (hora)
DESCASC
Temp. media en grados centígrados
DESCASC
Racha de viento máxima en m/sg (hora)
DESCASC
Velocidad máxima media en intervalos de 10 minutos(hora)
DESCASC
Precipitaciones diarias en mm
DESCASC
Precipitaciones de 00:00 a 06:00 en mm
DESCASC
Precipitaciones de 06:00 a 12:00 en mm
DESCASC
Precipitaciones de 12:00 a 18:00 en mm
DESCASC
Precipitaciones de 18:00 a 24:00 en mm
DESCASC
19-01-2020 21.1 (14:40) 10.4 (01:30) 15.8 6.39 (21:20) 3.33 (17:40) 0 0 0 0 0
18-01-2020 23.4 (14:20) 9.8 (04:10) 16.6 8.61 (12:20) 3.33 (12:20) 0 0 0 0 0
17-01-2020 20.6 (13:00) 11.1 (09:10) 15.9 5.83 (12:20) 3.06 (02:00) 0 0 0 0 0
16-01-2020 20.5 (13:50) 9.3 (00:00) 14.9 6.67 (14:40) 3.33 (14:50) 0 0 0 0 0
15-01-2020 21.8 (15:00) 11.4 (00:00) 16.6 8.89 (12:30) 4.17 (13:10) 0 0 0 0 0
14-01-2020 21.5 (14:40) 10.5 (00:00) 16 10.83 (10:40) 4.72 (13:30) 0 0 0 0 0
13-01-2020 19.6 (15:30) 11 (00:00) 15.3 8.89 (22:50) 2.78 (23:00) 0 0 0 0 0
12-01-2020 18.9 (12:20) 15.3 (00:50) 17.1 8.61 (08:00) 3.33 (01:00) 0 0 0 0 0
11-01-2020 18 (13:20) 15.3 (00:00) 16.7 10.83 (22:20) 4.72 (18:30) 0 0 0 0 0
10-01-2020 17.7 (14:50) 16 (00:00) 16.9 9.17 (12:50) 4.17 (12:50) 0 0 0 0 0
09-01-2020 18.3 (15:30) 15.3 (00:00) 16.8 10.28 (21:10) 4.72 (18:40) 0 0 0 0 0
08-01-2020 17.8 (12:40) 13.3 (00:00) 15.5 9.17 (19:30) 4.44 (11:50) 0 0 0 0 0
07-01-2020 18.9 (13:20) 15.5 (00:00) 17.2 10.56 (02:40) 5.56 (05:20) 0 0 0 0 0
06-01-2020 18.7 (13:50) 14.6 (00:00) 16.7 11.39 (23:40) 5.56 (23:40) 1 0 0 0 1
05-01-2020 19 (13:30) 13.2 (00:00) 16.1 6.39 (20:10) 2.78 (12:50) 0 0 0 0 0
04-01-2020 19.8 (15:30) 9.3 (00:00) 14.5 6.39 (03:20) 2.5 (20:50) 0 0 0 0 0
03-01-2020 20.5 (14:50) 9.9 (00:00) 15.2 14.72 (03:40) 3.61 (11:20) 0 0 0 0 0
02-01-2020 20.7 (15:40) 11.2 (00:00) 16 15 (08:40) 4.72 (07:20) 0 0 0 0 0
01-01-2020 20.9 (13:20) 11.1 (00:00) 16 12.22 (11:50) 4.72 (15:00) 0 0 0 0 0
31-12-2019 20 (13:10) 10.6 (00:00) 15.3 4.72 (13:30) 2.22 (13:30) 0 0 0 0 0
30-12-2019 -- (--) -- (--) -- -- (--) -- (--) -- 0 0 -- 0
29-12-2019 26.3 (14:40) 14.6 (00:00) 20.4 12.5 (09:30) 4.17 (12:00) 0 0 0 0 0
28-12-2019 27 (13:40) 13.8 (00:00) 20.4 8.89 (21:10) 3.61 (21:10) 0 0 0 0 0
27-12-2019 26.4 (13:50) 11.3 (00:00) 18.8 5.83 (14:30) 2.22 (14:30) 0 0 0 0 0
26-12-2019 23.8 (14:00) 14.4 (00:00) 19.1 5.83 (08:40) 2.78 (13:00) 0 0 0 0 0
25-12-2019 24.4 (10:20) 17.3 (00:00) 20.8 8.61 (08:50) 3.06 (09:00) 0 0 0 0 0
24-12-2019 26.9 (13:30) 11.3 (00:40) 19.1 12.22 (15:30) 4.17 (14:10) 0 0 0 0 0
23-12-2019 21.1 (13:50) 12.1 (00:00) 16.6 4.72 (03:00) 2.5 (12:50) 0 0 0 0 0

Gráficas

Temp. máximas Temp. mínimas Temp. medias Precipitaciones Rachas de viento máximas Velocidades máximas media en intervalos de 10 minutos

Datos horarios

Fecha y hora oficial Temperatura (ºC) Velocidad del viento (km/h) Dirección del viento Racha (km/h) Dirección de racha Precipitación (mm) Presión (hPa) Tendencia (hPa) Humedad (%)
2020-01-21 23:00:00 10.6 6 Sur 9 Sur 0 -- -- 93
2020-01-21 22:00:00 11.8 4 Sudeste 10 Sur 0 -- -- 91
2020-01-21 21:00:00 12.8 2 Nordeste 11 Nordeste 0 -- -- 90
2020-01-21 20:00:00 12.4 4 Sudeste 12 Sur 0 -- -- 92
2020-01-21 19:00:00 12.4 6 Sur 20 Nordeste 3.6 -- -- 92
2020-01-21 18:00:00 13.9 3 Nordeste 12 Nordeste 0 -- -- 84
2020-01-21 17:00:00 14.4 4 Nordeste 11 Nordeste 0 -- -- 85
2020-01-21 16:00:00 14.2 3 Oeste 9 Sudoeste 0 -- -- 84
2020-01-21 15:00:00 12.5 8 Este 37 Nordeste 4.2 -- -- 86
2020-01-21 14:00:00 15.6 8 Nordeste 21 Nordeste 0 -- -- 70
2020-01-21 13:00:00 15.8 9 Nordeste 21 Norte 0 -- -- 64
2020-01-21 12:00:00 15.1 9 Norte 26 Este 0 -- -- 74
2020-01-21 11:00:00 16.4 9 Nordeste 22 Nordeste 0 -- -- 58
2020-01-21 10:00:00 15.9 8 Nordeste 24 Norte 0 -- -- 62
2020-01-21 09:00:00 15.4 11 Norte 26 Norte 0 -- -- 58
2020-01-21 08:00:00 15.1 10 Nordeste 24 Nordeste 0 -- -- 58
2020-01-21 07:00:00 15.1 7 Nordeste 24 Nordeste 0 -- -- 59
2020-01-21 06:00:00 15.1 12 Norte 26 Nordeste 0 -- -- 60
2020-01-21 05:00:00 14.9 9 Norte 28 Nordeste 0 -- -- 68
2020-01-21 04:00:00 14.8 10 Nordeste 27 Noroeste 0 -- -- 71
2020-01-21 03:00:00 14.7 10 Nordeste 25 Nordeste 0 -- -- 74
2020-01-21 02:00:00 15.1 9 Norte 22 Norte 0 -- -- 71
2020-01-21 01:00:00 15.1 5 Nordeste 26 Este 0 -- -- 67
2020-01-21 00:00:00 15.4 10 Nordeste 25 Norte 0 -- -- 70
2020-01-20 23:00:00 15.4 13 Nordeste 28 Norte 0 -- -- 67
2020-01-20 22:00:00 15.6 10 Nordeste 30 Nordeste 0 -- -- 59
2020-01-20 21:00:00 15.5 11 Nordeste 33 Norte 0 -- -- 68
2020-01-20 20:00:00 15.5 8 Nordeste 29 Norte 0 -- -- 69
2020-01-20 19:00:00 15.8 11 Nordeste 28 Nordeste 0 -- -- 66
2020-01-20 18:00:00 15.9 9 Nordeste 22 Norte 0 -- -- 70
2020-01-20 17:00:00 16.3 6 Norte 19 Nordeste 0 -- -- 70
2020-01-20 16:00:00 16.5 8 Nordeste 16 Nordeste 0 -- -- 69
2020-01-20 15:00:00 17.4 6 Nordeste 17 Nordeste 0 -- -- 59
2020-01-20 14:00:00 17.2 8 Nordeste 22 Norte 0 -- -- 62
2020-01-20 13:00:00 16.6 9 Norte 20 Norte 0 -- -- 64
2020-01-20 12:00:00 16.5 9 Nordeste 21 Nordeste 0 -- -- 62
2020-01-20 11:00:00 16.1 9 Norte 25 Norte 0 -- -- 63
2020-01-20 10:00:00 15.6 7 Norte 27 Nordeste 0 -- -- 66
2020-01-20 09:00:00 15.3 9 Nordeste 27 Nordeste 0 -- -- 71
2020-01-20 08:00:00 15.4 8 Nordeste 25 Nordeste 0 -- -- 70
2020-01-20 07:00:00 15.6 9 Nordeste 30 Nordeste 0 -- -- 75
2020-01-20 06:00:00 16.1 12 Nordeste 30 Nordeste 0 -- -- 79
2020-01-20 05:00:00 16.2 11 Nordeste 29 Nordeste 0 -- -- 83
2020-01-20 04:00:00 16 8 Norte 24 Nordeste 0 -- -- 88
2020-01-20 03:00:00 15.9 12 Nordeste 26 Norte 0 -- -- 87
2020-01-20 02:00:00 16.4 10 Norte 27 Norte 0 -- -- 91
2020-01-20 01:00:00 16.5 8 Norte 23 Nordeste 0 -- -- 81
2020-01-20 00:00:00 16.2 5 Norte 21 Nordeste 0 -- -- 79
2020-01-19 23:00:00 16.4 10 Norte 22 Norte 0 -- -- 82
2020-01-19 22:00:00 16.4 9 Nordeste 23 Nordeste 0 -- -- 84
2020-01-19 21:00:00 16.4 4 Norte 12 Sur 0 -- -- 80
2020-01-19 20:00:00 15.6 4 Sur 10 Oeste 0 -- -- 82
2020-01-19 19:00:00 16.3 3 Este 10 Nordeste 0 -- -- 83
2020-01-19 18:00:00 17.3 4 Norte 22 Nordeste 0 -- -- 80
2020-01-19 17:00:00 19.1 5 Nordeste 14 Norte 0 -- -- 69
2020-01-19 16:00:00 18.8 3 Nordeste 21 Este 0 -- -- 74
2020-01-19 15:00:00 19.7 11 Nordeste 22 Norte 0 -- -- 66
2020-01-19 14:00:00 19.9 6 Nordeste 11 Nordeste 0 -- -- 66
2020-01-19 13:00:00 20.2 5 Norte 17 Nordeste 0 -- -- 62
2020-01-19 12:00:00 20.3 6 Nordeste 13 Nordeste 0 -- -- 59
2020-01-19 11:00:00 18.6 4 Sudoeste 8 Noroeste 0 -- -- 41
2020-01-19 10:00:00 16.1 4 Nordeste 11 Este 0 -- -- 62
2020-01-19 09:00:00 11.4 8 Sudeste 13 Sur 0 -- -- 54
2020-01-19 08:00:00 11.4 5 Sudeste 10 Sudeste 0 -- -- 56
2020-01-19 07:00:00 13.3 9 Este 13 Este 0 -- -- 59
2020-01-19 06:00:00 12 4 Sudeste 10 Nordeste 0 -- -- 48
2020-01-19 05:00:00 13.8 7 Este 11 Nordeste 0 -- -- 35
2020-01-19 04:00:00 11 4 Sudeste 10 Sudeste 0 -- -- 36
2020-01-19 03:00:00 12.1 5 Este 10 Este 0 -- -- 51
2020-01-19 02:00:00 10.7 5 Este 9 Sudeste 0 -- -- 67
2020-01-19 01:00:00 10.5 4 Sur 8 Sur 0 -- -- 72
2020-01-19 00:00:00 10.8 5 Sur 10 Sur 0 -- -- 58
2020-01-18 23:00:00 11.3 4 Sudeste 9 Sur 0 -- -- 56
2020-01-18 22:00:00 12.5 4 Sur 13 Sur 0 -- -- 48
2020-01-18 21:00:00 12.8 9 Sur 13 Sur 0 -- -- 58
2020-01-18 20:00:00 12.6 3 Sur 9 Sur 0 -- -- 57
2020-01-18 19:00:00 14.7 4 Sur 8 Sur 0 -- -- 49
2020-01-18 18:00:00 17.8 0 Calma 8 Nordeste 0 -- -- 41
2020-01-18 17:00:00 19.8 5 Nordeste 13 Nordeste 0 -- -- 37
2020-01-18 16:00:00 20.8 6 Nordeste 15 Norte 0 -- -- 35
2020-01-18 15:00:00 21.3 6 Norte 18 Oeste 0 -- -- 37
2020-01-18 14:00:00 23.2 8 Oeste 26 Sudoeste 0 -- -- 23
2020-01-18 13:00:00 22.4 7 Oeste 31 Sudoeste 0 -- -- 25
2020-01-18 12:00:00 21.2 8 Oeste 19 Sudoeste 0 -- -- 32
2020-01-18 11:00:00 18.7 5 Norte 18 Este 0 -- -- 63
2020-01-18 10:00:00 16.1 7 Nordeste 14 Nordeste 0 -- -- 72
2020-01-18 09:00:00 11.1 6 Sudeste 10 Este 0 -- -- 91
2020-01-18 08:00:00 10.8 5 Sudeste 12 Sur 0 -- -- 91
2020-01-18 07:00:00 11 7 Sur 12 Sur 0 -- -- 88
2020-01-18 06:00:00 10.7 6 Sur 13 Sur 0 -- -- 88
2020-01-18 05:00:00 10.1 6 Sur 11 Sur 0 -- -- 79
2020-01-18 04:00:00 9.9 6 Sur 9 Sudeste 0 -- -- 73
2020-01-18 03:00:00 10.6 4 Sur 10 Sur 0 -- -- 70
2020-01-18 02:00:00 11.4 5 Este 14 Sur 0 -- -- 51
2020-01-18 01:00:00 13.5 9 Sur 18 Sur 0 -- -- 40
2020-01-18 00:00:00 13.4 10 Sur 16 Sur 0 -- -- 39
2020-01-17 23:00:00 13.7 8 Sur 17 Sur 0 -- -- 39
2020-01-17 22:00:00 13.4 9 Sur 15 Sur 0 -- -- 48
2020-01-17 21:00:00 13.3 7 Sur 13 Sur 0 -- -- 50
2020-01-17 20:00:00 12.7 7 Sur 12 Sur 0 -- -- 56
2020-01-17 19:00:00 13.4 5 Sur 9 Sur 0 -- -- 54
2020-01-17 18:00:00 16.5 4 Sur 10 Norte 0 -- -- 53
2020-01-17 17:00:00 18.4 5 Norte 14 Norte 0 -- -- 52
2020-01-17 16:00:00 19.3 7 Norte 15 Norte 0 -- -- 48
2020-01-17 15:00:00 19.8 6 Nordeste 17 Este 0 -- -- 44
2020-01-17 14:00:00 19.9 8 Nordeste 21 Nordeste 0 -- -- 44
2020-01-17 13:00:00 20.6 7 Nordeste 21 Nordeste 0 -- -- 33
2020-01-17 12:00:00 19.8 5 Nordeste 18 Nordeste 0 -- -- 32
2020-01-17 11:00:00 18.1 6 Nordeste 14 Este 0 -- -- 32
2020-01-17 10:00:00 13.8 4 Sudeste 9 Sur 0 -- -- 62
2020-01-17 09:00:00 11.4 6 Sur 13 Sudoeste 0 -- -- 59
2020-01-17 08:00:00 12.3 9 Sur 17 Sur 0 -- -- 47
2020-01-17 07:00:00 12.1 10 Sur 18 Sur 0 -- -- 45
2020-01-17 06:00:00 11.6 9 Sur 16 Sur 0 -- -- 42
2020-01-17 05:00:00 12.2 10 Sur 17 Sur 0 -- -- 34
2020-01-17 04:00:00 12.7 9 Sur 20 Sur 0 -- -- 33
2020-01-17 03:00:00 13.2 11 Sur 19 Sur 0 -- -- 31
2020-01-17 02:00:00 13.6 11 Sur 19 Sur 0 -- -- 34
2020-01-17 01:00:00 13.4 10 Sur 18 Sur 0 -- -- 38
2020-01-17 00:00:00 13.3 10 Sur 19 Sur 0 -- -- 41
2020-01-16 23:00:00 13.2 9 Sur 16 Sur 0 -- -- 48
2020-01-16 22:00:00 13.4 9 Sur 15 Sur 0 -- -- 50
2020-01-16 21:00:00 13.6 9 Sur 18 Sur 0 -- -- 51
2020-01-16 20:00:00 13.8 9 Sur 14 Sur 0 -- -- 58
2020-01-16 19:00:00 14.4 5 Sur 10 Sudeste 0 -- -- 65
2020-01-16 18:00:00 16.6 3 Sur 14 Nordeste 0 -- -- 63
2020-01-16 17:00:00 17.9 6 Norte 19 Norte 0 -- -- 59
2020-01-16 16:00:00 19 6 Norte 16 Noroeste 0 -- -- 49
2020-01-16 15:00:00 19.2 11 Nordeste 24 Este 0 -- -- 45
2020-01-16 14:00:00 20.5 7 Norte 18 Nordeste 0 -- -- 32
2020-01-16 13:00:00 19.9 7 Norte 17 Norte 0 -- -- 37
2020-01-16 12:00:00 19.5 7 Norte 14 Nordeste 0 -- -- 38
2020-01-16 11:00:00 17.7 3 Norte 9 Sudoeste 0 -- -- 33
2020-01-16 10:00:00 14.6 4 Sudoeste 15 Sur 0 -- -- 39
2020-01-16 09:00:00 12.9 10 Sur 18 Sur 0 -- -- 38
2020-01-16 08:00:00 11.6 8 Sur 16 Sur 0 -- -- 40
2020-01-16 07:00:00 10.1 3 Sudeste 13 Sudeste 0 -- -- 44
2020-01-16 06:00:00 10.9 7 Sur 15 Sur 0 -- -- 40
2020-01-16 05:00:00 11.8 9 Sur 16 Sur 0 -- -- 39
2020-01-16 04:00:00 10.4 8 Sur 12 Sur 0 -- -- 44
2020-01-16 03:00:00 9.7 5 Sur 11 Sur 0 -- -- 47
2020-01-16 02:00:00 9.9 6 Sur 11 Sudeste 0 -- -- 45
2020-01-16 01:00:00 10.1 4 Sur 8 Sur 0 -- -- 45
2020-01-16 00:00:00 11.4 3 Sudeste 9 Sur 0 -- -- 42
2020-01-15 23:00:00 12.3 4 Sudeste 12 Sudoeste 0 -- -- 41
2020-01-15 22:00:00 12.6 5 Sudoeste 14 Sudoeste 0 -- -- 40
2020-01-15 21:00:00 12.4 4 Sur 12 Sudoeste 0 -- -- 40
2020-01-15 20:00:00 14 5 Sur 12 Sudoeste 0 -- -- 39
2020-01-15 19:00:00 15.5 5 Sur 10 Sudoeste 0 -- -- 52
2020-01-15 18:00:00 17.4 4 Sur 10 Sur 0 -- -- 51
2020-01-15 17:00:00 18.8 5 Nordeste 13 Nordeste 0 -- -- 47
2020-01-15 16:00:00 20.1 4 Noroeste 19 Noroeste 0 -- -- 44
2020-01-15 15:00:00 21.8 10 Sudoeste 26 Sudoeste 0 -- -- 37
2020-01-15 14:00:00 20.9 9 Sur 28 Sudoeste 0 -- -- 41
2020-01-15 13:00:00 20.5 10 Sudoeste 32 Sudoeste 0 -- -- 47
2020-01-15 12:00:00 19.6 10 Sudoeste 24 Oeste 0 -- -- 49
2020-01-15 11:00:00 18 8 Sudoeste 22 Sudoeste 0 -- -- 51
2020-01-15 10:00:00 16 7 Sur 22 Sudoeste 0 -- -- 60
2020-01-15 09:00:00 14 5 Sur 17 Sudoeste 0 -- -- 63
2020-01-15 08:00:00 13.1 6 Sur 14 Sudoeste 0 -- -- 62
2020-01-15 07:00:00 12.9 6 Sudeste 21 Sudoeste 0 -- -- 59
2020-01-15 06:00:00 12.5 5 Sur 12 Sur 0 -- -- 64
2020-01-15 05:00:00 12 4 Sur 13 Sudeste 0 -- -- 54
2020-01-15 04:00:00 13.7 5 Sur 19 Sudoeste 0 -- -- 40
2020-01-15 03:00:00 12.6 6 Sur 12 Sudeste 0 -- -- 41
2020-01-15 02:00:00 13.7 5 Sur 13 Sudoeste 0 -- -- 43
2020-01-15 01:00:00 14.2 5 Sur 18 Sudoeste 0 -- -- 42
2020-01-15 00:00:00 14.1 7 Sur 18 Sur 0 -- -- 39
2020-01-14 23:00:00 14 6 Sur 18 Sudeste 0 -- -- 37
2020-01-14 22:00:00 14.7 5 Sur 18 Sudoeste 0 -- -- 33
2020-01-14 21:00:00 15.3 6 Sur 21 Sudoeste 0 -- -- 38
2020-01-14 20:00:00 15.9 9 Sudoeste 29 Sudoeste 0 -- -- 58
2020-01-14 19:00:00 16.3 12 Sudoeste 29 Sudoeste 0 -- -- 55
2020-01-14 18:00:00 17.6 10 Sur 27 Sur 0 -- -- 44
2020-01-14 17:00:00 19.3 15 Sudoeste 35 Sudoeste 0 -- -- 40
2020-01-14 16:00:00 20.9 10 Sudoeste 27 Sudoeste 0 -- -- 37
2020-01-14 15:00:00 21.4 10 Sudoeste 32 Sudoeste 0 -- -- 36
2020-01-14 14:00:00 21.3 14 Sudoeste 39 Sudoeste 0 -- -- 39
2020-01-14 13:00:00 21.2 13 Sudoeste 31 Sudoeste 0 -- -- 42
2020-01-14 12:00:00 19.9 11 Sudoeste 30 Sudoeste 0 -- -- 48
2020-01-14 11:00:00 18.2 9 Sur 39 Sudoeste 0 -- -- 55
2020-01-14 10:00:00 16.9 8 Sur 28 Sudoeste 0 -- -- 60
2020-01-14 09:00:00 16 7 Sudoeste 28 Sudoeste 0 -- -- 65
2020-01-14 08:00:00 15.3 14 Sudoeste 27 Sudoeste 0 -- -- 69
2020-01-14 07:00:00 10.5 2 Sur 8 Sudeste 0 -- -- 64
2020-01-14 06:00:00 10.9 3 Nordeste 9 Oeste 0 -- -- 54
2020-01-14 05:00:00 12.2 3 Norte 7 Este 0 -- -- 45
2020-01-14 04:00:00 13.9 5 Nordeste 13 Sudeste 0 -- -- 40
2020-01-14 03:00:00 11.8 4 Este 10 Sur 0 -- -- 55
2020-01-14 02:00:00 12.6 6 Este 9 Sudeste 0 -- -- 69
2020-01-14 01:00:00 14.4 4 Nordeste 12 Este 0 -- -- 69
2020-01-14 00:00:00 14.6 3 Norte 24 Sur 0 -- -- 68
2020-01-13 23:00:00 15.7 10 Sur 32 Sudoeste 0 -- -- 70
2020-01-13 22:00:00 15.3 5 Sur 23 Sudoeste 0 -- -- 64
2020-01-13 21:00:00 16.2 10 Sur 23 Sudoeste 0 -- -- 68
2020-01-13 20:00:00 16.1 9 Sudeste 25 Oeste 0 -- -- 69
2020-01-13 19:00:00 15.3 4 Este 7 Sur 0 -- -- 71
2020-01-13 18:00:00 17.1 3 Nordeste 9 Norte 0 -- -- 63
2020-01-13 17:00:00 18.2 4 Norte 12 Norte 0 -- -- 63
2020-01-13 16:00:00 19.3 6 Norte 13 Nordeste 0 -- -- 56
2020-01-13 15:00:00 19.4 5 Norte 14 Nordeste 0 -- -- 53
2020-01-13 14:00:00 19 7 Nordeste 15 Este 0 -- -- 56
2020-01-13 13:00:00 18.9 6 Nordeste 17 Nordeste 0 -- -- 61
2020-01-13 12:00:00 19.1 5 Nordeste 11 Sudoeste 0 -- -- 58
2020-01-13 11:00:00 17.1 4 Sudoeste 9 Sur 0 -- -- 55
2020-01-13 10:00:00 14.4 5 Sur 12 Sur 0 -- -- 63
2020-01-13 09:00:00 13 8 Sur 15 Sur 0 -- -- 68
2020-01-13 08:00:00 12.4 9 Sur 17 Sur 0 -- -- 71
2020-01-13 07:00:00 11.4 8 Sur 13 Sur 0 -- -- 81
2020-01-13 06:00:00 11.7 6 Sur 13 Sur 0 -- -- 82
2020-01-13 05:00:00 12.3 8 Sur 15 Sur 0 -- -- 82
2020-01-13 04:00:00 12.3 8 Sur 14 Sur 0 -- -- 81
2020-01-13 03:00:00 12.7 8 Sur 14 Sur 0 -- -- 80
2020-01-13 02:00:00 13.6 10 Sur 16 Sur 0 -- -- 75
2020-01-13 01:00:00 14.7 6 Sur 12 Sur 0 -- -- 75
2020-01-13 00:00:00 15.6 3 Sur 11 Norte 0 -- -- 74
2020-01-12 23:00:00 16.1 3 Este 13 Sur 0 -- -- 71
2020-01-12 22:00:00 16.3 4 Nordeste 24 Norte 0 -- -- 69
2020-01-12 21:00:00 16.4 8 Nordeste 18 Nordeste 0 -- -- 77
2020-01-12 20:00:00 16.3 8 Nordeste 27 Nordeste 0 -- -- 80
2020-01-12 19:00:00 16.4 12 Norte 22 Norte 0 -- -- 76
2020-01-12 18:00:00 16.7 5 Norte 17 Norte 0 -- -- 69
2020-01-12 17:00:00 16.8 6 Nordeste 21 Norte 0 -- -- 66
2020-01-12 16:00:00 16.9 7 Nordeste 21 Nordeste 0 -- -- 68
2020-01-12 15:00:00 16.9 9 Nordeste 20 Norte 0 -- -- 71
2020-01-12 14:00:00 17.3 9 Norte 21 Nordeste 0 -- -- 65
2020-01-12 13:00:00 17.7 8 Nordeste 25 Nordeste 0 -- -- 67
2020-01-12 12:00:00 18.2 6 Nordeste 16 Nordeste 0 -- -- 63
2020-01-12 11:00:00 16.8 8 Nordeste 24 Nordeste 0 -- -- 69
2020-01-12 10:00:00 16.3 8 Nordeste 23 Nordeste 0 -- -- 71
2020-01-12 09:00:00 16.1 6 Nordeste 25 Norte 0 -- -- 72
2020-01-12 08:00:00 15.9 11 Nordeste 31 Nordeste 0 -- -- 72
2020-01-12 07:00:00 15.8 8 Norte 27 Nordeste 0 -- -- 74
2020-01-12 06:00:00 15.6 9 Norte 21 Nordeste 0 -- -- 76
2020-01-12 05:00:00 15.4 5 Nordeste 23 Nordeste 0 -- -- 72
2020-01-12 04:00:00 15.6 6 Norte 19 Nordeste 0 -- -- 73
2020-01-12 03:00:00 15.7 6 Noroeste 19 Norte 0 -- -- 71
2020-01-12 02:00:00 15.5 8 Norte 23 Norte 0 -- -- 74
2020-01-12 01:00:00 15.3 12 Norte 28 Nordeste 0 -- -- 73
2020-01-12 00:00:00 15.5 9 Nordeste 21 Norte 0 -- -- 74
2020-01-11 23:00:00 15.4 6 Norte 39 Norte 0 -- -- 75
2020-01-11 22:00:00 15.6 7 Noroeste 28 Norte 0 -- -- 72
2020-01-11 21:00:00 15.5 8 Norte 32 Norte 0 -- -- 77
2020-01-11 20:00:00 16 13 Nordeste 36 Nordeste 0 -- -- 81
2020-01-11 19:00:00 15.8 7 Nordeste 35 Nordeste 0 -- -- 76
2020-01-11 18:00:00 16.6 6 Nordeste 28 Nordeste 0 -- -- 67
2020-01-11 17:00:00 17 5 Nordeste 27 Nordeste 0 -- -- 66
2020-01-11 16:00:00 16.9 10 Norte 28 Norte 0 -- -- 70
2020-01-11 15:00:00 17 9 Norte 24 Nordeste 0 -- -- 73
2020-01-11 14:00:00 17.2 8 Norte 21 Nordeste 0 -- -- 65
2020-01-11 13:00:00 17.8 8 Norte 24 Nordeste 0 -- -- 59
2020-01-11 12:00:00 17.1 11 Nordeste 26 Norte 0 -- -- 62
2020-01-11 11:00:00 17 9 Nordeste 22 Norte 0 -- -- 66
2020-01-11 10:00:00 16.4 6 Norte 21 Nordeste 0 -- -- 67
2020-01-11 09:00:00 15.7 7 Norte 18 Norte 0 -- -- 69
2020-01-11 08:00:00 15.7 5 Nordeste 19 Nordeste 0 -- -- 70
2020-01-11 07:00:00 16 8 Nordeste 23 Nordeste 0 -- -- 71
2020-01-11 06:00:00 16 5 Norte 19 Norte 0 -- -- 73
2020-01-11 05:00:00 16.1 6 Nordeste 24 Norte 0 -- -- 77
2020-01-11 04:00:00 15.8 5 Nordeste 26 Nordeste 0 -- -- 89
2020-01-11 03:00:00 16 8 Nordeste 21 Este 0 -- -- 90
2020-01-11 02:00:00 16.1 7 Norte 19 Nordeste 0 -- -- 89
2020-01-11 01:00:00 16.2 6 Nordeste 19 Norte 0 -- -- 87
2020-01-11 00:00:00 16.4 5 Norte 15 Norte 0 -- -- 82
2020-01-10 23:00:00 16.4 5 Norte 16 Nordeste 0 -- -- 81
2020-01-10 22:00:00 16.4 6 Norte 13 Noroeste 0 -- -- 82
2020-01-10 21:00:00 16.3 4 Este 15 Noroeste 0 -- -- 82
2020-01-10 20:00:00 16.7 6 Norte 18 Noroeste 0 -- -- 85
2020-01-10 19:00:00 16.6 5 Norte 27 Norte 0 -- -- 81
2020-01-10 18:00:00 17 8 Nordeste 26 Norte 0 -- -- 79
2020-01-10 17:00:00 17.1 10 Norte 24 Nordeste 0 -- -- 82
2020-01-10 16:00:00 17.3 7 Norte 18 Nordeste 0 -- -- 81
2020-01-10 15:00:00 17.7 6 Norte 19 Norte 0 -- -- 81
2020-01-10 14:00:00 16.6 8 Norte 23 Norte 0 -- -- 89
2020-01-10 13:00:00 16.1 5 Este 33 Norte 0 -- -- 91
2020-01-10 12:00:00 16.9 8 Norte 28 Norte 0 -- -- 86
2020-01-10 11:00:00 16.4 13 Norte 31 Norte 0 -- -- 87
2020-01-10 10:00:00 16.5 8 Nordeste 31 Nordeste 0 -- -- 84
2020-01-10 09:00:00 16.5 10 Norte 24 Nordeste 0 -- -- 81
2020-01-10 08:00:00 16.3 10 Norte 28 Norte 0 -- -- 80
2020-01-10 07:00:00 16.1 6 Nordeste 24 Nordeste 0 -- -- 81
2020-01-10 06:00:00 16.1 5 Norte 22 Nordeste 0 -- -- 80
2020-01-10 05:00:00 16.3 8 Norte 29 Norte 0 -- -- 80
2020-01-10 04:00:00 16.1 5 Noroeste 24 Nordeste 0 -- -- 79
2020-01-10 03:00:00 16.6 8 Norte 29 Nordeste 0 -- -- 73
2020-01-10 02:00:00 16.2 6 Norte 27 Nordeste 0 -- -- 68
2020-01-10 01:00:00 16.3 12 Nordeste 25 Nordeste 0 -- -- 69
2020-01-10 00:00:00 16.3 10 Norte 22 Nordeste 0 -- -- 69
2020-01-09 23:00:00 16.2 8 Nordeste 24 Nordeste 0 -- -- 71
2020-01-09 22:00:00 16.3 10 Norte 37 Nordeste 0 -- -- 69
2020-01-09 21:00:00 16.3 13 Nordeste 31 Norte 0 -- -- 67
2020-01-09 20:00:00 16.5 14 Norte 29 Nordeste 0 -- -- 72
2020-01-09 19:00:00 16.5 10 Norte 30 Nordeste 0 -- -- 65
2020-01-09 18:00:00 16.6 14 Nordeste 30 Norte 0 -- -- 66
2020-01-09 17:00:00 17.1 8 Norte 29 Nordeste 0 -- -- 65
2020-01-09 16:00:00 17.6 8 Norte 23 Norte 0 -- -- 62
2020-01-09 15:00:00 17.9 8 Norte 27 Nordeste 0 -- -- 64
2020-01-09 14:00:00 17.1 12 Norte 29 Nordeste 0 -- -- 67
2020-01-09 13:00:00 17.3 13 Norte 31 Norte 0 -- -- 63
2020-01-09 12:00:00 17.9 9 Norte 31 Norte 0 -- -- 62
2020-01-09 11:00:00 16.7 12 Norte 30 Nordeste 0 -- -- 63
2020-01-09 10:00:00 16.3 11 Nordeste 30 Nordeste 0 -- -- 70
2020-01-09 09:00:00 16 14 Norte 30 Norte 0 -- -- 74
2020-01-09 08:00:00 16 14 Norte 29 Noroeste 0 -- -- 72
2020-01-09 07:00:00 15.8 10 Norte 23 Norte 0 -- -- 78
2020-01-09 06:00:00 15.7 7 Nordeste 17 Norte 0 -- -- 78
2020-01-09 05:00:00 15.4 4 Nordeste 21 Norte 0 -- -- 74
2020-01-09 04:00:00 15.4 7 Nordeste 19 Nordeste 0 -- -- 76
2020-01-09 03:00:00 15.7 10 Nordeste 26 Nordeste 0 -- -- 74
2020-01-09 02:00:00 15.8 12 Norte 27 Norte 0 -- -- 72
2020-01-09 01:00:00 15.8 6 Norte 22 Nordeste 0 -- -- 72
2020-01-09 00:00:00 15.8 8 Norte 23 Nordeste 0 -- -- 72
2020-01-08 23:00:00 15.7 9 Norte 27 Nordeste 0 -- -- 70
2020-01-08 22:00:00 16 16 Norte 33 Nordeste 0 -- -- 69
2020-01-08 21:00:00 16 8 Norte 29 Norte 0 -- -- 66
2020-01-08 20:00:00 16.1 12 Norte 33 Nordeste 0 -- -- 69
2020-01-08 19:00:00 16.2 15 Norte 32 Nordeste 0 -- -- 72
2020-01-08 18:00:00 16.3 10 Nordeste 26 Norte 0 -- -- 70
2020-01-08 17:00:00 16.7 14 Norte 31 Norte 0 -- -- 69
2020-01-08 16:00:00 17 13 Norte 29 Norte 0 -- -- 68
2020-01-08 15:00:00 17 13 Nordeste 29 Norte 0 -- -- 68
2020-01-08 14:00:00 17 13 Norte 29 Norte 0 -- -- 72
2020-01-08 13:00:00 17.4 12 Nordeste 29 Norte 0 -- -- 69
2020-01-08 12:00:00 17 13 Nordeste 33 Norte 0 -- -- 65
2020-01-08 11:00:00 16.8 10 Norte 25 Norte 0 -- -- 72
2020-01-08 10:00:00 16.3 9 Nordeste 27 Nordeste 0 -- -- 75
2020-01-08 09:00:00 15.9 7 Nordeste 25 Norte 0 -- -- 78
2020-01-08 08:00:00 15.7 7 Norte 21 Norte 0 -- -- 75
2020-01-08 07:00:00 15.1 3 Nordeste 14 Nordeste 0 -- -- 75
2020-01-08 06:00:00 15.4 5 Norte 16 Norte 0 -- -- 75
2020-01-08 05:00:00 15.6 8 Nordeste 27 Norte 0 -- -- 73
2020-01-08 04:00:00 15.9 10 Nordeste 24 Norte 0 -- -- 77
2020-01-08 03:00:00 15.9 8 Nordeste 26 Nordeste 0 -- -- 73
2020-01-08 02:00:00 14.7 3 Norte 13 Nordeste 0 -- -- 78
2020-01-08 01:00:00 13.9 5 Sudeste 14 Norte 0 -- -- 74
2020-01-08 00:00:00 15.8 4 Norte 24 Nordeste 0 -- -- 67
2020-01-07 23:00:00 15.9 9 Norte 21 Nordeste 0 -- -- 72
2020-01-07 22:00:00 16.1 9 Nordeste 23 Norte 0 -- -- 72
2020-01-07 21:00:00 16.4 9 Nordeste 27 Nordeste 0 -- -- 72
2020-01-07 20:00:00 16.6 10 Nordeste 23 Nordeste 0 -- -- 74
2020-01-07 19:00:00 16.7 6 Nordeste 19 Nordeste 0 -- -- 69
2020-01-07 18:00:00 17.2 3 Nordeste 22 Nordeste 0 -- -- 65
2020-01-07 17:00:00 17.2 10 Norte 26 Nordeste 0 -- -- 67
2020-01-07 16:00:00 17.5 7 Nordeste 23 Norte 0 -- -- 67
2020-01-07 15:00:00 17.8 8 Norte 21 Norte 0 -- -- 67
2020-01-07 14:00:00 18.6 11 Norte 24 Nordeste 0 -- -- 60
2020-01-07 13:00:00 18.5 11 Norte 22 Norte 0 -- -- 58
2020-01-07 12:00:00 17.1 11 Norte 23 Norte 0 -- -- 63
2020-01-07 11:00:00 17 12 Norte 28 Nordeste 0 -- -- 64
2020-01-07 10:00:00 16.5 12 Norte 31 Nordeste 0 -- -- 71
2020-01-07 09:00:00 15.9 8 Nordeste 23 Norte 0 -- -- 68
2020-01-07 08:00:00 15.7 8 Nordeste 29 Norte 0 -- -- 72
2020-01-07 07:00:00 15.6 13 Norte 32 Nordeste 0 -- -- 67
2020-01-07 06:00:00 15.8 12 Norte 37 Norte 0 -- -- 65
2020-01-07 05:00:00 16.1 12 Nordeste 33 Norte 0 -- -- 65
2020-01-07 04:00:00 16 14 Nordeste 36 Nordeste 0 -- -- 78
2020-01-07 03:00:00 16.1 17 Nordeste 38 Norte 0 -- -- 76
2020-01-07 02:00:00 15.9 13 Nordeste 34 Norte 0 -- -- 76
2020-01-07 01:00:00 15.8 16 Nordeste 37 Norte 0 -- -- 72
2020-01-07 00:00:00 15.9 15 Norte 41 Norte 0 -- -- 75
2020-01-06 23:00:00 14.9 12 Norte 37 Nordeste 1 -- -- 84
2020-01-06 22:00:00 16.5 15 Nordeste 36 Norte 0 -- -- 75
2020-01-06 21:00:00 16.4 15 Nordeste 37 Norte 0 -- -- 75
2020-01-06 20:00:00 16.3 11 Nordeste 33 Norte 0 -- -- 72
2020-01-06 19:00:00 16.5 10 Nordeste 30 Norte 0 -- -- 70
2020-01-06 18:00:00 16.6 8 Norte 27 Nordeste 0 -- -- 70
2020-01-06 17:00:00 16.9 12 Nordeste 28 Nordeste 0 -- -- 67
2020-01-06 16:00:00 17.6 11 Norte 29 Norte 0 -- -- 65
2020-01-06 15:00:00 18.6 11 Norte 27 Norte 0 -- -- 58
2020-01-06 14:00:00 18.7 10 Nordeste 25 Nordeste 0 -- -- 54
2020-01-06 13:00:00 18.4 13 Norte 29 Norte 0 -- -- 57
2020-01-06 12:00:00 18.2 13 Norte 36 Norte 0 -- -- 56
2020-01-06 11:00:00 17.2 13 Norte 31 Norte 0 -- -- 67
2020-01-06 10:00:00 16 6 Norte 27 Norte 0 -- -- 77
2020-01-06 09:00:00 15.4 7 Norte 20 Noroeste 0 -- -- 79